sensor_id;sensor_type;location;lat;lon;timestamp;P1;durP1;ratioP1;P2;durP2;ratioP2
77051;SDS011;65980;44.898;8.602;2023-10-13T00:00:27;17.75;;;12.40;;
77051;SDS011;65980;44.898;8.602;2023-10-13T00:03:33;20.40;;;12.82;;
77051;SDS011;65980;44.898;8.602;2023-10-13T00:06:38;18.60;;;11.98;;
77051;SDS011;65980;44.898;8.602;2023-10-13T00:09:42;21.42;;;12.70;;
77051;SDS011;65980;44.898;8.602;2023-10-13T00:12:47;17.98;;;12.32;;
77051;SDS011;65980;44.898;8.602;2023-10-13T00:15:54;22.52;;;12.57;;
77051;SDS011;65980;44.898;8.602;2023-10-13T00:19:02;21.20;;;12.98;;
77051;SDS011;65980;44.898;8.602;2023-10-13T00:22:13;19.98;;;12.82;;
77051;SDS011;65980;44.898;8.602;2023-10-13T00:25:23;19.60;;;13.15;;
77051;SDS011;65980;44.898;8.602;2023-10-13T00:28:31;16.73;;;11.93;;
77051;SDS011;65980;44.898;8.602;2023-10-13T00:35:27;17.65;;;12.25;;
77051;SDS011;65980;44.898;8.602;2023-10-13T00:38:45;18.52;;;11.60;;
77051;SDS011;65980;44.898;8.602;2023-10-13T00:41:51;16.17;;;11.45;;
77051;SDS011;65980;44.898;8.602;2023-10-13T00:44:56;17.95;;;11.88;;
77051;SDS011;65980;44.898;8.602;2023-10-13T00:48:02;20.90;;;12.65;;
77051;SDS011;65980;44.898;8.602;2023-10-13T00:51:14;17.40;;;12.03;;
77051;SDS011;65980;44.898;8.602;2023-10-13T00:54:39;15.05;;;11.38;;
77051;SDS011;65980;44.898;8.602;2023-10-13T00:57:44;18.30;;;10.73;;
77051;SDS011;65980;44.898;8.602;2023-10-13T01:00:50;16.58;;;10.90;;
77051;SDS011;65980;44.898;8.602;2023-10-13T01:04:00;18.67;;;11.60;;
77051;SDS011;65980;44.898;8.602;2023-10-13T01:07:08;15.32;;;10.68;;
77051;SDS011;65980;44.898;8.602;2023-10-13T01:10:12;15.90;;;10.90;;
77051;SDS011;65980;44.898;8.602;2023-10-13T01:13:18;17.58;;;10.82;;
77051;SDS011;65980;44.898;8.602;2023-10-13T01:16:25;17.65;;;11.00;;
77051;SDS011;65980;44.898;8.602;2023-10-13T01:19:35;18.90;;;10.63;;
77051;SDS011;65980;44.898;8.602;2023-10-13T01:22:47;18.33;;;11.57;;
77051;SDS011;65980;44.898;8.602;2023-10-13T01:26:00;15.55;;;10.45;;
77051;SDS011;65980;44.898;8.602;2023-10-13T01:29:11;18.83;;;11.25;;
77051;SDS011;65980;44.898;8.602;2023-10-13T01:32:17;16.38;;;10.80;;
77051;SDS011;65980;44.898;8.602;2023-10-13T01:35:22;15.77;;;10.23;;
77051;SDS011;65980;44.898;8.602;2023-10-13T01:38:38;19.08;;;10.95;;
77051;SDS011;65980;44.898;8.602;2023-10-13T01:41:46;16.45;;;11.18;;
77051;SDS011;65980;44.898;8.602;2023-10-13T01:44:59;20.33;;;11.25;;
77051;SDS011;65980;44.898;8.602;2023-10-13T01:48:09;19.15;;;11.23;;
77051;SDS011;65980;44.898;8.602;2023-10-13T01:51:13;15.38;;;10.70;;
77051;SDS011;65980;44.898;8.602;2023-10-13T01:54:19;17.58;;;10.50;;
77051;SDS011;65980;44.898;8.602;2023-10-13T01:57:25;16.00;;;10.90;;
77051;SDS011;65980;44.898;8.602;2023-10-13T02:00:31;16.60;;;10.23;;
77051;SDS011;65980;44.898;8.602;2023-10-13T02:03:35;16.23;;;10.35;;
77051;SDS011;65980;44.898;8.602;2023-10-13T02:06:46;15.63;;;10.20;;
77051;SDS011;65980;44.898;8.602;2023-10-13T02:09:52;18.27;;;11.38;;
77051;SDS011;65980;44.898;8.602;2023-10-13T02:12:59;16.02;;;10.27;;
77051;SDS011;65980;44.898;8.602;2023-10-13T02:16:06;17.75;;;10.40;;
77051;SDS011;65980;44.898;8.602;2023-10-13T02:19:11;16.45;;;10.65;;
77051;SDS011;65980;44.898;8.602;2023-10-13T02:22:20;14.07;;;10.10;;
77051;SDS011;65980;44.898;8.602;2023-10-13T02:25:34;19.05;;;11.45;;
77051;SDS011;65980;44.898;8.602;2023-10-13T02:28:50;18.50;;;10.45;;
77051;SDS011;65980;44.898;8.602;2023-10-13T02:31:56;16.40;;;9.65;;
77051;SDS011;65980;44.898;8.602;2023-10-13T02:35:02;12.95;;;9.95;;
77051;SDS011;65980;44.898;8.602;2023-10-13T02:38:11;14.05;;;9.30;;
77051;SDS011;65980;44.898;8.602;2023-10-13T02:41:16;15.60;;;9.77;;
77051;SDS011;65980;44.898;8.602;2023-10-13T02:44:35;15.77;;;10.10;;
77051;SDS011;65980;44.898;8.602;2023-10-13T02:47:45;15.90;;;10.15;;
77051;SDS011;65980;44.898;8.602;2023-10-13T02:50:54;16.38;;;9.77;;
77051;SDS011;65980;44.898;8.602;2023-10-13T02:54:01;13.30;;;9.38;;
77051;SDS011;65980;44.898;8.602;2023-10-13T02:57:06;16.20;;;10.20;;
77051;SDS011;65980;44.898;8.602;2023-10-13T03:00:11;16.95;;;10.07;;
77051;SDS011;65980;44.898;8.602;2023-10-13T03:03:16;15.20;;;9.93;;
77051;SDS011;65980;44.898;8.602;2023-10-13T03:06:22;14.85;;;9.82;;
77051;SDS011;65980;44.898;8.602;2023-10-13T03:09:37;13.82;;;9.38;;
77051;SDS011;65980;44.898;8.602;2023-10-13T03:12:41;13.13;;;9.20;;
77051;SDS011;65980;44.898;8.602;2023-10-13T03:15:45;13.98;;;9.70;;
77051;SDS011;65980;44.898;8.602;2023-10-13T03:18:52;14.40;;;9.93;;
77051;SDS011;65980;44.898;8.602;2023-10-13T03:21:59;15.05;;;10.27;;
77051;SDS011;65980;44.898;8.602;2023-10-13T03:25:15;18.55;;;10.25;;
77051;SDS011;65980;44.898;8.602;2023-10-13T03:28:41;16.02;;;10.15;;
77051;SDS011;65980;44.898;8.602;2023-10-13T03:31:45;17.75;;;10.27;;
77051;SDS011;65980;44.898;8.602;2023-10-13T03:34:49;14.85;;;10.07;;
77051;SDS011;65980;44.898;8.602;2023-10-13T03:38:06;18.70;;;11.00;;
77051;SDS011;65980;44.898;8.602;2023-10-13T03:41:31;15.77;;;9.70;;
77051;SDS011;65980;44.898;8.602;2023-10-13T03:44:36;17.98;;;10.55;;
77051;SDS011;65980;44.898;8.602;2023-10-13T03:47:42;17.63;;;11.23;;
77051;SDS011;65980;44.898;8.602;2023-10-13T03:50:50;16.88;;;11.02;;
77051;SDS011;65980;44.898;8.602;2023-10-13T03:54:11;19.33;;;11.40;;
77051;SDS011;65980;44.898;8.602;2023-10-13T03:57:19;19.38;;;10.60;;
77051;SDS011;65980;44.898;8.602;2023-10-13T04:00:26;14.77;;;10.45;;
77051;SDS011;65980;44.898;8.602;2023-10-13T04:03:32;18.45;;;10.40;;
77051;SDS011;65980;44.898;8.602;2023-10-13T04:06:41;19.80;;;11.55;;
77051;SDS011;65980;44.898;8.602;2023-10-13T04:09:51;15.05;;;9.98;;
77051;SDS011;65980;44.898;8.602;2023-10-13T04:16:39;16.48;;;10.10;;
77051;SDS011;65980;44.898;8.602;2023-10-13T04:19:56;17.77;;;10.73;;
77051;SDS011;65980;44.898;8.602;2023-10-13T04:23:10;16.58;;;10.07;;
77051;SDS011;65980;44.898;8.602;2023-10-13T04:26:29;16.33;;;9.35;;
77051;SDS011;65980;44.898;8.602;2023-10-13T04:29:40;14.77;;;10.38;;
77051;SDS011;65980;44.898;8.602;2023-10-13T04:33:03;14.20;;;9.77;;
77051;SDS011;65980;44.898;8.602;2023-10-13T04:36:21;16.20;;;9.75;;
77051;SDS011;65980;44.898;8.602;2023-10-13T04:39:31;17.52;;;10.40;;
77051;SDS011;65980;44.898;8.602;2023-10-13T04:42:39;17.13;;;10.30;;
77051;SDS011;65980;44.898;8.602;2023-10-13T04:45:53;19.65;;;9.65;;
77051;SDS011;65980;44.898;8.602;2023-10-13T04:49:19;14.65;;;9.63;;
77051;SDS011;65980;44.898;8.602;2023-10-13T04:52:32;14.55;;;9.13;;
77051;SDS011;65980;44.898;8.602;2023-10-13T04:56:02;14.02;;;8.90;;
77051;SDS011;65980;44.898;8.602;2023-10-13T04:59:06;14.70;;;9.23;;
77051;SDS011;65980;44.898;8.602;2023-10-13T05:02:43;16.30;;;9.35;;
77051;SDS011;65980;44.898;8.602;2023-10-13T05:09:32;14.30;;;9.27;;
77051;SDS011;65980;44.898;8.602;2023-10-13T05:12:56;17.23;;;9.57;;
77051;SDS011;65980;44.898;8.602;2023-10-13T05:16:19;16.92;;;9.70;;
77051;SDS011;65980;44.898;8.602;2023-10-13T05:19:42;15.93;;;9.75;;
77051;SDS011;65980;44.898;8.602;2023-10-13T05:23:05;24.20;;;10.45;;
77051;SDS011;65980;44.898;8.602;2023-10-13T05:26:28;14.55;;;9.65;;
77051;SDS011;65980;44.898;8.602;2023-10-13T05:29:52;14.38;;;10.02;;
77051;SDS011;65980;44.898;8.602;2023-10-13T05:33:20;15.60;;;9.68;;
77051;SDS011;65980;44.898;8.602;2023-10-13T05:36:43;13.50;;;9.10;;
77051;SDS011;65980;44.898;8.602;2023-10-13T05:40:06;13.02;;;8.60;;
77051;SDS011;65980;44.898;8.602;2023-10-13T05:43:29;14.55;;;9.18;;
77051;SDS011;65980;44.898;8.602;2023-10-13T05:46:52;17.15;;;8.93;;
77051;SDS011;65980;44.898;8.602;2023-10-13T05:50:19;16.77;;;9.63;;
77051;SDS011;65980;44.898;8.602;2023-10-13T05:53:24;16.92;;;9.85;;
77051;SDS011;65980;44.898;8.602;2023-10-13T05:56:58;15.52;;;9.07;;
77051;SDS011;65980;44.898;8.602;2023-10-13T06:00:30;20.80;;;9.38;;
77051;SDS011;65980;44.898;8.602;2023-10-13T06:03:57;15.25;;;9.45;;
77051;SDS011;65980;44.898;8.602;2023-10-13T06:07:20;17.52;;;9.70;;
77051;SDS011;65980;44.898;8.602;2023-10-13T06:10:43;14.75;;;9.15;;
77051;SDS011;65980;44.898;8.602;2023-10-13T06:14:06;16.35;;;9.70;;
77051;SDS011;65980;44.898;8.602;2023-10-13T06:17:35;21.30;;;9.57;;
77051;SDS011;65980;44.898;8.602;2023-10-13T06:26:36;17.75;;;10.05;;
77051;SDS011;65980;44.898;8.602;2023-10-13T06:29:59;13.90;;;9.38;;
77051;SDS011;65980;44.898;8.602;2023-10-13T06:33:06;18.52;;;10.07;;
77051;SDS011;65980;44.898;8.602;2023-10-13T06:36:11;14.60;;;9.30;;
77051;SDS011;65980;44.898;8.602;2023-10-13T06:39:15;19.23;;;9.30;;
77051;SDS011;65980;44.898;8.602;2023-10-13T06:42:38;16.17;;;9.35;;
77051;SDS011;65980;44.898;8.602;2023-10-13T06:45:49;14.88;;;9.43;;
77051;SDS011;65980;44.898;8.602;2023-10-13T06:49:08;13.55;;;8.55;;
77051;SDS011;65980;44.898;8.602;2023-10-13T06:52:14;16.95;;;10.02;;
77051;SDS011;65980;44.898;8.602;2023-10-13T06:55:20;18.70;;;9.45;;
77051;SDS011;65980;44.898;8.602;2023-10-13T06:58:31;15.45;;;9.55;;
77051;SDS011;65980;44.898;8.602;2023-10-13T07:01:47;18.77;;;9.82;;
77051;SDS011;65980;44.898;8.602;2023-10-13T07:04:52;17.23;;;10.15;;
77051;SDS011;65980;44.898;8.602;2023-10-13T07:08:01;14.80;;;10.35;;
77051;SDS011;65980;44.898;8.602;2023-10-13T07:11:08;15.90;;;9.75;;
77051;SDS011;65980;44.898;8.602;2023-10-13T07:14:17;20.67;;;9.60;;
77051;SDS011;65980;44.898;8.602;2023-10-13T07:17:24;19.02;;;10.15;;
77051;SDS011;65980;44.898;8.602;2023-10-13T07:21:38;19.10;;;9.75;;
77051;SDS011;65980;44.898;8.602;2023-10-13T07:24:50;19.15;;;9.60;;
77051;SDS011;65980;44.898;8.602;2023-10-13T07:31:28;16.98;;;10.02;;
77051;SDS011;65980;44.898;8.602;2023-10-13T07:34:42;18.10;;;9.70;;
77051;SDS011;65980;44.898;8.602;2023-10-13T07:37:47;15.00;;;9.93;;
77051;SDS011;65980;44.898;8.602;2023-10-13T07:40:59;15.48;;;10.18;;
77051;SDS011;65980;44.898;8.602;2023-10-13T07:44:11;19.67;;;10.48;;
77051;SDS011;65980;44.898;8.602;2023-10-13T07:47:17;22.08;;;10.32;;
77051;SDS011;65980;44.898;8.602;2023-10-13T07:50:24;17.83;;;10.50;;
77051;SDS011;65980;44.898;8.602;2023-10-13T07:54:29;15.15;;;10.30;;
77051;SDS011;65980;44.898;8.602;2023-10-13T07:57:50;28.73;;;10.50;;
77051;SDS011;65980;44.898;8.602;2023-10-13T08:04:49;17.58;;;10.10;;
77051;SDS011;65980;44.898;8.602;2023-10-13T08:07:54;17.70;;;10.18;;
77051;SDS011;65980;44.898;8.602;2023-10-13T08:11:01;19.23;;;10.02;;
77051;SDS011;65980;44.898;8.602;2023-10-13T08:14:15;19.23;;;9.70;;
77051;SDS011;65980;44.898;8.602;2023-10-13T08:17:20;21.10;;;11.07;;
77051;SDS011;65980;44.898;8.602;2023-10-13T08:20:32;15.95;;;10.65;;
77051;SDS011;65980;44.898;8.602;2023-10-13T08:23:42;16.77;;;10.23;;
77051;SDS011;65980;44.898;8.602;2023-10-13T08:26:59;15.35;;;10.45;;
77051;SDS011;65980;44.898;8.602;2023-10-13T08:30:19;20.70;;;11.85;;
77051;SDS011;65980;44.898;8.602;2023-10-13T08:33:46;15.88;;;10.27;;
77051;SDS011;65980;44.898;8.602;2023-10-13T08:36:50;19.90;;;10.65;;
77051;SDS011;65980;44.898;8.602;2023-10-13T08:40:00;27.10;;;11.02;;
77051;SDS011;65980;44.898;8.602;2023-10-13T08:43:12;16.23;;;9.70;;
77051;SDS011;65980;44.898;8.602;2023-10-13T08:46:18;21.38;;;11.07;;
77051;SDS011;65980;44.898;8.602;2023-10-13T08:49:35;24.92;;;10.25;;
77051;SDS011;65980;44.898;8.602;2023-10-13T08:52:44;18.80;;;9.80;;
77051;SDS011;65980;44.898;8.602;2023-10-13T08:56:00;14.63;;;9.07;;
77051;SDS011;65980;44.898;8.602;2023-10-13T08:59:19;15.10;;;8.63;;
77051;SDS011;65980;44.898;8.602;2023-10-13T09:02:36;19.70;;;9.57;;
77051;SDS011;65980;44.898;8.602;2023-10-13T09:05:59;11.68;;;7.60;;
77051;SDS011;65980;44.898;8.602;2023-10-13T09:09:12;14.75;;;8.38;;
77051;SDS011;65980;44.898;8.602;2023-10-13T09:12:31;32.03;;;8.38;;
77051;SDS011;65980;44.898;8.602;2023-10-13T09:15:36;19.48;;;9.57;;
77051;SDS011;65980;44.898;8.602;2023-10-13T09:19:16;11.75;;;8.43;;
77051;SDS011;65980;44.898;8.602;2023-10-13T09:22:21;14.60;;;7.70;;
77051;SDS011;65980;44.898;8.602;2023-10-13T09:25:32;13.43;;;7.57;;
77051;SDS011;65980;44.898;8.602;2023-10-13T09:28:41;10.23;;;7.13;;
77051;SDS011;65980;44.898;8.602;2023-10-13T09:31:58;9.07;;;6.75;;
77051;SDS011;65980;44.898;8.602;2023-10-13T09:35:07;10.60;;;7.70;;
77051;SDS011;65980;44.898;8.602;2023-10-13T09:38:17;13.45;;;7.03;;
77051;SDS011;65980;44.898;8.602;2023-10-13T09:41:22;8.13;;;6.00;;
77051;SDS011;65980;44.898;8.602;2023-10-13T09:44:30;16.08;;;7.00;;
77051;SDS011;65980;44.898;8.602;2023-10-13T09:47:35;11.32;;;7.00;;
77051;SDS011;65980;44.898;8.602;2023-10-13T09:50:44;12.02;;;6.43;;
77051;SDS011;65980;44.898;8.602;2023-10-13T09:54:10;8.82;;;6.70;;
77051;SDS011;65980;44.898;8.602;2023-10-13T09:57:48;9.85;;;6.45;;
77051;SDS011;65980;44.898;8.602;2023-10-13T10:01:37;8.48;;;6.30;;
77051;SDS011;65980;44.898;8.602;2023-10-13T10:16:01;16.35;;;5.80;;
77051;SDS011;65980;44.898;8.602;2023-10-13T10:19:21;12.88;;;5.78;;
77051;SDS011;65980;44.898;8.602;2023-10-13T10:36:37;13.13;;;6.50;;
77051;SDS011;65980;44.898;8.602;2023-10-13T10:39:41;15.70;;;6.43;;
77051;SDS011;65980;44.898;8.602;2023-10-13T10:42:54;11.17;;;5.73;;
77051;SDS011;65980;44.898;8.602;2023-10-13T10:46:18;13.38;;;5.97;;
77051;SDS011;65980;44.898;8.602;2023-10-13T10:58:10;9.43;;;5.75;;
77051;SDS011;65980;44.898;8.602;2023-10-13T11:02:53;11.27;;;5.55;;
77051;SDS011;65980;44.898;8.602;2023-10-13T11:06:11;13.20;;;5.80;;
77051;SDS011;65980;44.898;8.602;2023-10-13T11:09:28;9.50;;;5.50;;
77051;SDS011;65980;44.898;8.602;2023-10-13T11:16:22;10.38;;;5.03;;
77051;SDS011;65980;44.898;8.602;2023-10-13T11:19:42;10.55;;;4.93;;
77051;SDS011;65980;44.898;8.602;2023-10-13T11:22:47;14.15;;;6.10;;
77051;SDS011;65980;44.898;8.602;2023-10-13T11:25:57;11.63;;;5.60;;
77051;SDS011;65980;44.898;8.602;2023-10-13T11:29:07;15.10;;;5.60;;
77051;SDS011;65980;44.898;8.602;2023-10-13T11:32:28;11.02;;;5.68;;
77051;SDS011;65980;44.898;8.602;2023-10-13T11:35:33;10.02;;;5.70;;
77051;SDS011;65980;44.898;8.602;2023-10-13T11:42:41;9.98;;;5.75;;
77051;SDS011;65980;44.898;8.602;2023-10-13T11:46:13;10.63;;;5.25;;
77051;SDS011;65980;44.898;8.602;2023-10-13T11:49:42;12.75;;;5.38;;
77051;SDS011;65980;44.898;8.602;2023-10-13T11:56:22;9.68;;;5.07;;
77051;SDS011;65980;44.898;8.602;2023-10-13T11:59:28;11.52;;;5.57;;
77051;SDS011;65980;44.898;8.602;2023-10-13T12:02:33;9.40;;;5.32;;
77051;SDS011;65980;44.898;8.602;2023-10-13T12:06:01;11.57;;;5.38;;
77051;SDS011;65980;44.898;8.602;2023-10-13T12:09:23;19.88;;;5.55;;
77051;SDS011;65980;44.898;8.602;2023-10-13T12:12:27;11.00;;;5.43;;
77051;SDS011;65980;44.898;8.602;2023-10-13T12:15:33;11.35;;;5.53;;
77051;SDS011;65980;44.898;8.602;2023-10-13T12:18:54;10.90;;;5.35;;
77051;SDS011;65980;44.898;8.602;2023-10-13T12:21:59;9.32;;;5.07;;
77051;SDS011;65980;44.898;8.602;2023-10-13T12:25:12;9.30;;;5.55;;
77051;SDS011;65980;44.898;8.602;2023-10-13T12:28:23;11.55;;;5.53;;
77051;SDS011;65980;44.898;8.602;2023-10-13T12:31:30;9.13;;;5.22;;
77051;SDS011;65980;44.898;8.602;2023-10-13T12:34:36;12.88;;;5.85;;
77051;SDS011;65980;44.898;8.602;2023-10-13T12:37:59;10.52;;;5.50;;
77051;SDS011;65980;44.898;8.602;2023-10-13T12:41:08;11.25;;;5.03;;
77051;SDS011;65980;44.898;8.602;2023-10-13T12:44:32;14.10;;;6.07;;
77051;SDS011;65980;44.898;8.602;2023-10-13T12:47:54;13.10;;;5.63;;
77051;SDS011;65980;44.898;8.602;2023-10-13T12:51:17;8.55;;;4.55;;
77051;SDS011;65980;44.898;8.602;2023-10-13T12:54:28;13.02;;;4.97;;
77051;SDS011;65980;44.898;8.602;2023-10-13T12:57:39;15.70;;;5.45;;
77051;SDS011;65980;44.898;8.602;2023-10-13T13:00:47;9.82;;;5.13;;
77051;SDS011;65980;44.898;8.602;2023-10-13T13:03:53;7.93;;;5.03;;
77051;SDS011;65980;44.898;8.602;2023-10-13T13:06:59;7.35;;;4.60;;
77051;SDS011;65980;44.898;8.602;2023-10-13T13:10:04;9.18;;;4.80;;
77051;SDS011;65980;44.898;8.602;2023-10-13T13:13:08;5.20;;;4.00;;
77051;SDS011;65980;44.898;8.602;2023-10-13T13:16:13;8.52;;;4.50;;
77051;SDS011;65980;44.898;8.602;2023-10-13T13:19:19;9.52;;;4.78;;
77051;SDS011;65980;44.898;8.602;2023-10-13T13:22:31;6.63;;;4.15;;
77051;SDS011;65980;44.898;8.602;2023-10-13T13:25:35;9.48;;;4.70;;
77051;SDS011;65980;44.898;8.602;2023-10-13T13:28:46;7.00;;;4.35;;
77051;SDS011;65980;44.898;8.602;2023-10-13T13:31:55;8.27;;;4.30;;
77051;SDS011;65980;44.898;8.602;2023-10-13T13:34:59;13.70;;;4.80;;
77051;SDS011;65980;44.898;8.602;2023-10-13T13:38:17;15.55;;;5.22;;
77051;SDS011;65980;44.898;8.602;2023-10-13T13:41:33;12.40;;;4.82;;
77051;SDS011;65980;44.898;8.602;2023-10-13T13:44:36;6.78;;;4.53;;
77051;SDS011;65980;44.898;8.602;2023-10-13T13:47:41;8.82;;;4.60;;
77051;SDS011;65980;44.898;8.602;2023-10-13T13:50:45;10.30;;;4.57;;
77051;SDS011;65980;44.898;8.602;2023-10-13T13:53:56;9.00;;;4.90;;
77051;SDS011;65980;44.898;8.602;2023-10-13T13:57:01;8.23;;;4.65;;
77051;SDS011;65980;44.898;8.602;2023-10-13T14:00:05;7.90;;;4.93;;
77051;SDS011;65980;44.898;8.602;2023-10-13T14:03:13;11.95;;;4.65;;
77051;SDS011;65980;44.898;8.602;2023-10-13T14:06:36;11.02;;;4.60;;
77051;SDS011;65980;44.898;8.602;2023-10-13T14:09:42;14.55;;;5.03;;
77051;SDS011;65980;44.898;8.602;2023-10-13T14:12:48;7.97;;;4.40;;
77051;SDS011;65980;44.898;8.602;2023-10-13T14:15:52;11.43;;;4.63;;
77051;SDS011;65980;44.898;8.602;2023-10-13T14:19:00;8.02;;;4.43;;
77051;SDS011;65980;44.898;8.602;2023-10-13T14:22:11;17.63;;;5.05;;
77051;SDS011;65980;44.898;8.602;2023-10-13T14:25:16;15.48;;;4.45;;
77051;SDS011;65980;44.898;8.602;2023-10-13T14:28:20;10.18;;;4.50;;
77051;SDS011;65980;44.898;8.602;2023-10-13T14:31:24;6.55;;;4.57;;
77051;SDS011;65980;44.898;8.602;2023-10-13T14:34:28;12.48;;;4.65;;
77051;SDS011;65980;44.898;8.602;2023-10-13T14:37:32;6.07;;;4.32;;
77051;SDS011;65980;44.898;8.602;2023-10-13T14:40:36;7.60;;;4.35;;
77051;SDS011;65980;44.898;8.602;2023-10-13T14:43:41;14.18;;;5.03;;
77051;SDS011;65980;44.898;8.602;2023-10-13T14:46:50;11.10;;;4.85;;
77051;SDS011;65980;44.898;8.602;2023-10-13T14:49:58;7.75;;;4.18;;
77051;SDS011;65980;44.898;8.602;2023-10-13T14:53:03;12.95;;;4.65;;
77051;SDS011;65980;44.898;8.602;2023-10-13T14:56:07;11.02;;;4.72;;
77051;SDS011;65980;44.898;8.602;2023-10-13T14:59:13;11.48;;;4.55;;
77051;SDS011;65980;44.898;8.602;2023-10-13T15:02:21;9.13;;;4.60;;
77051;SDS011;65980;44.898;8.602;2023-10-13T15:05:26;14.07;;;4.70;;
77051;SDS011;65980;44.898;8.602;2023-10-13T15:08:34;12.43;;;4.43;;
77051;SDS011;65980;44.898;8.602;2023-10-13T15:11:38;8.80;;;4.72;;
77051;SDS011;65980;44.898;8.602;2023-10-13T15:14:44;9.30;;;4.65;;
77051;SDS011;65980;44.898;8.602;2023-10-13T15:17:47;8.02;;;4.43;;
77051;SDS011;65980;44.898;8.602;2023-10-13T15:20:51;8.77;;;4.57;;
77051;SDS011;65980;44.898;8.602;2023-10-13T15:23:56;7.78;;;4.65;;
77051;SDS011;65980;44.898;8.602;2023-10-13T15:27:18;8.98;;;4.90;;
77051;SDS011;65980;44.898;8.602;2023-10-13T15:30:25;8.90;;;4.78;;
77051;SDS011;65980;44.898;8.602;2023-10-13T15:33:34;12.50;;;4.85;;
77051;SDS011;65980;44.898;8.602;2023-10-13T15:36:42;11.30;;;4.97;;
77051;SDS011;65980;44.898;8.602;2023-10-13T15:39:48;6.95;;;4.55;;
77051;SDS011;65980;44.898;8.602;2023-10-13T15:42:54;10.30;;;5.38;;
77051;SDS011;65980;44.898;8.602;2023-10-13T15:46:03;7.60;;;4.80;;
77051;SDS011;65980;44.898;8.602;2023-10-13T15:49:11;9.77;;;4.45;;
77051;SDS011;65980;44.898;8.602;2023-10-13T15:52:23;7.25;;;4.95;;
77051;SDS011;65980;44.898;8.602;2023-10-13T15:55:27;10.07;;;4.80;;
77051;SDS011;65980;44.898;8.602;2023-10-13T15:58:35;8.88;;;4.85;;
77051;SDS011;65980;44.898;8.602;2023-10-13T16:01:38;9.18;;;4.90;;
77051;SDS011;65980;44.898;8.602;2023-10-13T16:04:44;11.05;;;5.00;;
77051;SDS011;65980;44.898;8.602;2023-10-13T16:07:51;7.85;;;4.70;;
77051;SDS011;65980;44.898;8.602;2023-10-13T16:11:02;8.27;;;4.78;;
77051;SDS011;65980;44.898;8.602;2023-10-13T16:14:11;8.57;;;4.97;;
77051;SDS011;65980;44.898;8.602;2023-10-13T16:17:20;8.27;;;4.72;;
77051;SDS011;65980;44.898;8.602;2023-10-13T16:20:27;8.05;;;5.10;;
77051;SDS011;65980;44.898;8.602;2023-10-13T16:23:32;8.27;;;5.13;;
77051;SDS011;65980;44.898;8.602;2023-10-13T16:26:37;13.63;;;5.22;;
77051;SDS011;65980;44.898;8.602;2023-10-13T16:29:44;8.85;;;4.75;;
77051;SDS011;65980;44.898;8.602;2023-10-13T16:32:48;12.32;;;5.30;;
77051;SDS011;65980;44.898;8.602;2023-10-13T16:35:52;8.55;;;5.22;;
77051;SDS011;65980;44.898;8.602;2023-10-13T16:38:58;10.10;;;5.38;;
77051;SDS011;65980;44.898;8.602;2023-10-13T16:42:06;8.98;;;5.20;;
77051;SDS011;65980;44.898;8.602;2023-10-13T16:53:24;8.70;;;5.45;;
77051;SDS011;65980;44.898;8.602;2023-10-13T17:08:23;12.38;;;5.10;;
77051;SDS011;65980;44.898;8.602;2023-10-13T17:11:27;7.95;;;4.70;;
77051;SDS011;65980;44.898;8.602;2023-10-13T17:14:37;8.25;;;4.85;;
77051;SDS011;65980;44.898;8.602;2023-10-13T17:18:02;7.90;;;5.43;;
77051;SDS011;65980;44.898;8.602;2023-10-13T17:24:51;10.65;;;5.18;;
77051;SDS011;65980;44.898;8.602;2023-10-13T17:31:26;9.82;;;5.40;;
77051;SDS011;65980;44.898;8.602;2023-10-13T17:34:30;10.88;;;5.85;;
77051;SDS011;65980;44.898;8.602;2023-10-13T17:41:15;9.95;;;6.03;;
77051;SDS011;65980;44.898;8.602;2023-10-13T17:44:19;14.10;;;6.10;;
77051;SDS011;65980;44.898;8.602;2023-10-13T17:47:26;8.82;;;6.43;;
77051;SDS011;65980;44.898;8.602;2023-10-13T17:50:32;10.27;;;6.43;;
77051;SDS011;65980;44.898;8.602;2023-10-13T17:53:37;12.70;;;6.38;;
77051;SDS011;65980;44.898;8.602;2023-10-13T17:56:42;12.30;;;6.18;;
77051;SDS011;65980;44.898;8.602;2023-10-13T17:59:47;10.45;;;6.20;;
77051;SDS011;65980;44.898;8.602;2023-10-13T18:06:30;14.48;;;7.07;;
77051;SDS011;65980;44.898;8.602;2023-10-13T18:09:43;11.07;;;7.28;;
77051;SDS011;65980;44.898;8.602;2023-10-13T18:12:59;13.02;;;6.75;;
77051;SDS011;65980;44.898;8.602;2023-10-13T18:24:36;10.93;;;7.18;;
77051;SDS011;65980;44.898;8.602;2023-10-13T18:32:27;10.75;;;6.85;;
77051;SDS011;65980;44.898;8.602;2023-10-13T18:39:51;12.80;;;6.80;;
77051;SDS011;65980;44.898;8.602;2023-10-13T18:43:02;13.52;;;7.45;;
77051;SDS011;65980;44.898;8.602;2023-10-13T19:05:18;13.65;;;7.70;;
77051;SDS011;65980;44.898;8.602;2023-10-13T19:08:54;10.98;;;7.13;;
77051;SDS011;65980;44.898;8.602;2023-10-13T19:20:13;13.07;;;7.65;;
77051;SDS011;65980;44.898;8.602;2023-10-13T19:23:35;16.15;;;8.10;;
77051;SDS011;65980;44.898;8.602;2023-10-13T19:26:44;17.23;;;8.25;;
77051;SDS011;65980;44.898;8.602;2023-10-13T19:34:15;15.20;;;8.45;;
77051;SDS011;65980;44.898;8.602;2023-10-13T19:37:50;12.23;;;7.60;;
77051;SDS011;65980;44.898;8.602;2023-10-13T19:40:56;13.00;;;8.30;;
77051;SDS011;65980;44.898;8.602;2023-10-13T19:51:18;17.00;;;8.90;;
77051;SDS011;65980;44.898;8.602;2023-10-13T19:58:20;12.23;;;7.85;;
77051;SDS011;65980;44.898;8.602;2023-10-13T20:09:33;14.68;;;8.48;;
77051;SDS011;65980;44.898;8.602;2023-10-13T20:12:43;14.52;;;8.38;;
77051;SDS011;65980;44.898;8.602;2023-10-13T20:31:09;11.57;;;7.82;;
77051;SDS011;65980;44.898;8.602;2023-10-13T20:42:41;16.25;;;8.45;;
77051;SDS011;65980;44.898;8.602;2023-10-13T20:49:44;12.43;;;7.55;;
77051;SDS011;65980;44.898;8.602;2023-10-13T21:00:41;11.73;;;8.00;;
77051;SDS011;65980;44.898;8.602;2023-10-13T21:04:02;14.38;;;8.50;;
77051;SDS011;65980;44.898;8.602;2023-10-13T21:07:44;11.43;;;7.25;;
77051;SDS011;65980;44.898;8.602;2023-10-13T21:10:53;11.70;;;7.72;;
77051;SDS011;65980;44.898;8.602;2023-10-13T21:21:32;13.35;;;8.02;;
77051;SDS011;65980;44.898;8.602;2023-10-13T21:24:41;14.48;;;7.70;;
77051;SDS011;65980;44.898;8.602;2023-10-13T21:32:21;13.77;;;8.02;;
77051;SDS011;65980;44.898;8.602;2023-10-13T21:39:32;9.73;;;7.78;;
77051;SDS011;65980;44.898;8.602;2023-10-13T21:46:17;12.13;;;8.20;;
77051;SDS011;65980;44.898;8.602;2023-10-13T21:54:15;12.98;;;7.38;;
77051;SDS011;65980;44.898;8.602;2023-10-13T22:01:26;14.82;;;8.50;;
77051;SDS011;65980;44.898;8.602;2023-10-13T22:04:55;12.77;;;8.98;;
77051;SDS011;65980;44.898;8.602;2023-10-13T22:11:56;15.70;;;7.97;;
77051;SDS011;65980;44.898;8.602;2023-10-13T22:23:05;13.75;;;9.25;;
77051;SDS011;65980;44.898;8.602;2023-10-13T22:26:20;12.07;;;8.43;;
77051;SDS011;65980;44.898;8.602;2023-10-13T22:37:10;12.63;;;9.20;;
77051;SDS011;65980;44.898;8.602;2023-10-13T22:40:44;13.25;;;8.90;;
77051;SDS011;65980;44.898;8.602;2023-10-13T22:43:58;15.98;;;9.13;;
77051;SDS011;65980;44.898;8.602;2023-10-13T22:51:09;11.45;;;8.57;;
77051;SDS011;65980;44.898;8.602;2023-10-13T22:54:29;19.30;;;9.85;;
77051;SDS011;65980;44.898;8.602;2023-10-13T23:04:52;12.85;;;8.30;;
77051;SDS011;65980;44.898;8.602;2023-10-13T23:12:04;15.95;;;8.80;;
77051;SDS011;65980;44.898;8.602;2023-10-13T23:15:38;13.52;;;8.93;;
77051;SDS011;65980;44.898;8.602;2023-10-13T23:26:03;16.30;;;10.02;;
77051;SDS011;65980;44.898;8.602;2023-10-13T23:29:11;17.00;;;10.02;;
77051;SDS011;65980;44.898;8.602;2023-10-13T23:32:20;14.75;;;8.82;;
77051;SDS011;65980;44.898;8.602;2023-10-13T23:43:54;15.88;;;8.98;;